createdAt,value
2022-12-14T00:01:49.114Z,10.50
2022-12-14T00:06:46.200Z,11.30
2022-12-14T00:11:42.557Z,10.60
2022-12-14T00:16:38.969Z,10.88
2022-12-14T00:21:35.505Z,10.73
2022-12-14T00:26:32.913Z,9.52
2022-12-14T00:31:30.001Z,10.32
2022-12-14T00:36:26.979Z,10.40
2022-12-14T00:41:23.464Z,10.35
2022-12-14T00:46:20.476Z,10.68
2022-12-14T00:51:16.938Z,11.40
2022-12-14T00:56:13.376Z,9.85
2022-12-14T01:01:16.012Z,11.60
2022-12-14T01:06:18.645Z,10.77
2022-12-14T01:11:15.381Z,11.57
2022-12-14T01:16:14.936Z,10.48
2022-12-14T01:21:15.333Z,10.50
2022-12-14T01:26:16.278Z,11.70
2022-12-14T01:31:18.711Z,10.73
2022-12-14T01:36:18.101Z,11.90
2022-12-14T01:41:24.948Z,11.55
2022-12-14T01:46:28.026Z,11.45
2022-12-14T01:51:27.018Z,10.55
2022-12-14T02:01:20.122Z,11.38
2022-12-14T02:06:23.323Z,10.93
2022-12-14T02:11:32.562Z,10.85
2022-12-14T02:16:29.004Z,11.43
2022-12-14T02:21:51.123Z,11.23
2022-12-14T02:26:56.563Z,11.13
2022-12-14T02:32:29.953Z,10.85
2022-12-14T02:38:05.777Z,11.32
2022-12-14T02:43:20.816Z,12.27
2022-12-14T02:48:28.807Z,11.35
2022-12-14T02:53:38.833Z,12.67
2022-12-14T02:58:39.785Z,11.80
2022-12-14T03:03:36.134Z,10.90
2022-12-14T03:08:35.771Z,10.65
2022-12-14T03:13:53.885Z,11.57
2022-12-14T03:18:57.079Z,9.73
2022-12-14T03:23:56.121Z,11.77
2022-12-14T03:33:57.234Z,11.13
2022-12-14T03:38:59.027Z,11.02
2022-12-14T03:44:10.551Z,10.52
2022-12-14T03:49:25.405Z,10.90
2022-12-14T03:54:28.135Z,11.38
2022-12-14T03:59:48.626Z,10.93
2022-12-14T04:04:53.494Z,10.20
2022-12-14T04:10:03.851Z,10.30
2022-12-14T04:15:26.786Z,10.18
2022-12-14T04:21:02.495Z,10.65
2022-12-14T04:26:04.965Z,10.43
2022-12-14T04:31:05.164Z,9.07
2022-12-14T04:36:03.352Z,10.15
2022-12-14T04:41:08.787Z,8.03
2022-12-14T04:46:09.219Z,9.13
2022-12-14T04:51:14.928Z,9.32
2022-12-14T04:56:36.273Z,9.43
2022-12-14T05:01:52.585Z,9.63
2022-12-14T05:07:12.152Z,9.68
2022-12-14T05:12:23.505Z,9.45
2022-12-14T05:17:19.995Z,10.35
2022-12-14T05:22:17.664Z,11.10
2022-12-14T05:27:14.016Z,9.98
2022-12-14T05:32:13.665Z,9.73
2022-12-14T05:37:17.789Z,10.48
2022-12-14T05:42:15.051Z,9.05
2022-12-14T05:47:11.766Z,9.82
2022-12-14T05:52:08.135Z,9.77
2022-12-14T05:57:05.727Z,9.93
2022-12-14T06:02:02.452Z,9.43
2022-12-14T06:06:58.920Z,9.90
2022-12-14T06:11:55.444Z,8.68
2022-12-14T06:16:52.250Z,8.48
2022-12-14T06:21:48.568Z,8.48
2022-12-14T06:26:44.972Z,9.98
2022-12-14T06:31:41.661Z,8.52
2022-12-14T06:36:41.679Z,7.32
2022-12-14T06:41:38.341Z,8.35
2022-12-14T06:46:35.937Z,8.88
2022-12-14T06:51:32.937Z,8.88
2022-12-14T06:56:29.441Z,8.82
2022-12-14T07:01:26.098Z,8.50
2022-12-14T07:06:24.910Z,8.02
2022-12-14T07:11:21.691Z,7.47
2022-12-14T07:16:25.646Z,8.43
2022-12-14T07:21:22.552Z,7.07
2022-12-14T07:26:23.140Z,7.25
2022-12-14T07:31:23.084Z,6.82
2022-12-14T07:36:21.333Z,6.97
2022-12-14T07:41:23.807Z,7.43
2022-12-14T07:46:22.599Z,7.38
2022-12-14T07:51:21.686Z,6.68
2022-12-14T07:56:20.502Z,7.75
2022-12-14T08:01:25.473Z,6.32
2022-12-14T08:06:23.752Z,7.35
2022-12-14T08:11:22.206Z,9.20
2022-12-14T08:16:18.773Z,6.63
2022-12-14T08:21:17.335Z,7.13
2022-12-14T08:26:14.078Z,5.55
2022-12-14T08:31:12.981Z,6.53
2022-12-14T08:41:09.075Z,6.40
2022-12-14T08:46:05.622Z,6.57
2022-12-14T08:51:04.208Z,6.30
2022-12-14T08:56:12.507Z,6.68
2022-12-14T09:01:13.291Z,7.15
2022-12-14T09:06:12.254Z,7.20
2022-12-14T09:11:12.425Z,7.95
2022-12-14T09:16:12.975Z,7.43
2022-12-14T09:21:09.784Z,8.40
2022-12-14T09:26:20.328Z,8.27
2022-12-14T09:31:19.012Z,8.48
2022-12-14T09:36:18.489Z,7.82
2022-12-14T09:41:35.365Z,7.60
2022-12-14T09:46:47.186Z,7.35
2022-12-14T09:51:43.575Z,7.57
2022-12-14T09:56:41.918Z,7.55
2022-12-14T10:02:28.915Z,8.23
2022-12-14T10:07:28.174Z,7.28
2022-12-14T10:12:35.375Z,9.23
2022-12-14T10:17:31.855Z,8.35
2022-12-14T10:22:35.762Z,7.80
2022-12-14T10:27:53.912Z,8.90
2022-12-14T10:32:54.430Z,7.68
2022-12-14T10:38:13.232Z,8.90
2022-12-14T10:43:21.566Z,8.57
2022-12-14T10:48:37.704Z,7.40
2022-12-14T10:54:18.709Z,6.00
2022-12-14T10:59:17.736Z,4.47
2022-12-14T11:09:24.434Z,5.10
2022-12-14T11:14:22.485Z,4.43
2022-12-14T11:19:21.444Z,4.40
2022-12-14T11:29:39.993Z,4.55
2022-12-14T11:34:40.275Z,4.35
2022-12-14T11:39:39.777Z,3.95
2022-12-14T11:44:37.569Z,4.28
2022-12-14T11:49:42.402Z,3.95
2022-12-14T11:54:49.680Z,3.78
2022-12-14T11:59:57.655Z,3.60
2022-12-14T12:05:15.810Z,4.18
2022-12-14T12:10:12.103Z,3.37
2022-12-14T12:15:17.737Z,3.35
2022-12-14T12:20:25.841Z,3.63
2022-12-14T12:25:27.560Z,3.90
2022-12-14T12:30:31.122Z,4.40
2022-12-14T12:35:48.704Z,4.28
2022-12-14T12:41:13.315Z,4.00
2022-12-14T12:46:18.327Z,4.28
2022-12-14T12:51:22.126Z,3.92
2022-12-14T12:56:48.104Z,4.25
2022-12-14T13:01:49.883Z,4.25
2022-12-14T13:07:05.042Z,3.67
2022-12-14T13:12:03.175Z,3.40
2022-12-14T13:17:05.022Z,3.33
2022-12-14T13:22:06.332Z,4.28
2022-12-14T13:27:17.866Z,4.03
2022-12-14T13:32:40.950Z,3.35
2022-12-14T13:37:52.619Z,3.95
2022-12-14T13:43:16.327Z,3.95
2022-12-14T13:48:20.093Z,4.38
2022-12-14T13:53:24.589Z,4.10
2022-12-14T13:58:27.469Z,3.72
2022-12-14T14:03:36.508Z,4.05
2022-12-14T14:13:38.584Z,3.97
2022-12-14T14:18:47.058Z,4.47
2022-12-14T14:24:17.861Z,4.65
2022-12-14T14:29:23.456Z,4.43
2022-12-14T14:34:29.408Z,4.90
2022-12-14T14:39:56.676Z,4.00
2022-12-14T14:45:01.284Z,5.82
2022-12-14T14:50:04.621Z,5.18
2022-12-14T14:55:52.725Z,5.93
2022-12-14T15:05:48.087Z,5.32
2022-12-14T15:10:47.630Z,4.50
2022-12-14T15:15:46.513Z,6.13
2022-12-14T15:21:03.401Z,5.63
2022-12-14T15:26:02.061Z,4.65
2022-12-14T15:30:58.816Z,4.88
2022-12-14T15:36:03.112Z,5.93
2022-12-14T15:41:03.294Z,5.47
2022-12-14T15:46:04.716Z,5.15
2022-12-14T15:51:12.862Z,5.60
2022-12-14T15:56:38.779Z,6.10
2022-12-14T16:01:39.721Z,5.45
2022-12-14T16:06:42.936Z,6.18
2022-12-14T16:11:43.976Z,5.82
2022-12-14T16:16:40.584Z,5.78
2022-12-14T16:21:37.013Z,6.25
2022-12-14T16:26:37.826Z,6.07
2022-12-14T16:31:37.026Z,5.85
2022-12-14T16:36:35.525Z,5.88
2022-12-14T16:41:40.995Z,4.72
2022-12-14T16:46:37.384Z,5.10
2022-12-14T16:52:05.874Z,5.80
2022-12-14T16:57:06.724Z,6.30
2022-12-14T17:02:04.365Z,5.90
2022-12-14T17:07:01.258Z,5.82
2022-12-14T17:12:01.640Z,6.45
2022-12-14T17:17:01.926Z,5.88
2022-12-14T17:21:59.260Z,5.88
2022-12-14T17:26:55.612Z,5.90
2022-12-14T17:31:55.395Z,6.65
2022-12-14T17:36:51.975Z,5.80
2022-12-14T17:41:48.668Z,7.78
2022-12-14T17:46:48.490Z,7.40
2022-12-14T17:51:46.321Z,7.18
2022-12-14T17:56:43.608Z,7.40
2022-12-14T18:01:41.624Z,8.05
2022-12-14T18:06:38.248Z,5.83
2022-12-14T18:11:34.794Z,6.90
2022-12-14T18:16:31.290Z,7.05
2022-12-14T18:21:29.513Z,8.60
2022-12-14T18:26:26.025Z,7.00
2022-12-14T18:31:32.115Z,7.70
2022-12-14T18:36:28.555Z,8.73
2022-12-14T18:41:26.381Z,8.48
2022-12-14T18:46:23.248Z,7.97
2022-12-14T18:51:27.340Z,8.88
2022-12-14T18:56:25.279Z,10.40
2022-12-14T19:01:23.995Z,6.15
2022-12-14T19:11:41.788Z,9.88
2022-12-14T19:16:38.483Z,9.52
2022-12-14T19:21:34.992Z,10.10
2022-12-14T19:26:31.363Z,11.10
2022-12-14T19:31:27.853Z,10.77
2022-12-14T19:36:25.152Z,9.82
2022-12-14T19:41:21.633Z,9.95
2022-12-14T19:46:18.396Z,10.35
2022-12-14T19:51:15.322Z,10.80
2022-12-14T19:56:15.659Z,11.32
2022-12-14T20:01:13.912Z,11.70
2022-12-14T20:06:10.424Z,10.55
2022-12-14T20:11:08.993Z,11.30
2022-12-14T20:16:05.950Z,11.00
2022-12-14T20:21:04.728Z,10.82
2022-12-14T20:26:02.383Z,10.55
2022-12-14T20:30:58.924Z,10.00
2022-12-14T20:35:55.356Z,11.32
2022-12-14T20:40:51.866Z,9.75
2022-12-14T20:45:48.253Z,10.38
2022-12-14T20:50:49.475Z,12.18
2022-12-14T20:55:47.609Z,11.23
2022-12-14T21:00:44.157Z,11.65
2022-12-14T21:05:42.056Z,12.23
2022-12-14T21:10:38.475Z,10.25
2022-12-14T21:15:35.795Z,9.73
2022-12-14T21:20:32.638Z,10.93
2022-12-14T21:25:29.083Z,11.02
2022-12-14T21:30:25.499Z,11.85
2022-12-14T21:35:21.871Z,11.35
2022-12-14T21:40:38.239Z,10.80
2022-12-14T21:45:34.685Z,11.80
2022-12-14T21:50:31.081Z,11.63
2022-12-14T21:55:27.494Z,12.18
2022-12-14T22:00:23.928Z,10.85
2022-12-14T22:05:20.327Z,11.07
2022-12-14T22:10:22.824Z,12.65
2022-12-14T22:15:21.159Z,13.38
2022-12-14T22:20:17.534Z,10.77
2022-12-14T22:25:14.038Z,11.82
2022-12-14T22:30:12.081Z,11.00
2022-12-14T22:35:09.496Z,9.87
2022-12-14T22:40:06.874Z,11.07
2022-12-14T22:45:03.602Z,11.90
2022-12-14T22:49:59.993Z,11.95
2022-12-14T22:54:56.346Z,10.77
2022-12-14T23:00:01.320Z,11.02
2022-12-14T23:04:57.675Z,10.35
2022-12-14T23:10:12.500Z,10.82
2022-12-14T23:15:28.087Z,11.20
2022-12-14T23:20:43.061Z,10.90
2022-12-14T23:25:58.146Z,10.32
2022-12-14T23:31:15.192Z,10.52
2022-12-14T23:36:30.358Z,11.95
2022-12-14T23:41:45.417Z,11.43
2022-12-14T23:47:00.221Z,11.38
2022-12-14T23:52:15.575Z,10.68
2022-12-14T23:57:30.506Z,11.32
